Time;durP1;ratioP1;P1;durP2;ratioP2;P2;SDS_P1;SDS_P2;PMS_P1;PMS_P2;Temp;Humidity;BMP_temperature;BMP_pressure;BME280_temperature;BME280_humidity;BME280_pressure;Samples;Min_cycle;Max_cycle;Signal;HPM_P1;HPM_P2
2022/12/17 13:06:03;;;;;;;;;;;;;;;-1.23;100.00;102522.56;5008313;28;19925;-62
2022/12/17 13:08:28;;;;;;;;;;;;;;;-1.15;100.00;102517.06;5003923;28;19921;-63
2022/12/17 13:10:55;;;;;;;;;;;;;;;-1.08;100.00;102516.28;5009594;28;19920;-62
2022/12/17 13:13:26;;;;;;;;;;;;;;;-1.08;100.00;102516.28;5009090;28;20012;-63
2022/12/17 13:15:56;;;;;;;;;;;;;;;-1.11;100.00;102514.81;5009556;28;20135;-62
2022/12/17 13:18:35;;;;;;;;;;;;;;;-1.30;100.00;102527.91;5009408;28;19988;-62
2022/12/17 13:21:23;;;;;;;;;;;;;;;-1.34;100.00;102525.75;5012562;28;19922;-63
2022/12/17 13:23:48;;;;;;;;;;;;;;;-1.36;100.00;102527.78;5005261;28;19917;-63
2022/12/17 13:26:24;;;;;;;;;;;;;;;-1.37;100.00;102526.09;5013207;28;19970;-63
2022/12/17 13:29:10;;;;;;;;;;;;;;;-1.34;100.00;102529.28;5012732;28;19982;-63
2022/12/17 13:31:44;;;;;;;;;;;;;;;-1.30;100.00;102527.03;5013127;28;19984;-62
2022/12/17 13:34:15;;;;;;;;;;;;;;;-1.28;100.00;102528.56;5012137;28;19925;-61
2022/12/17 13:36:59;;;;;;;;;;;;;;;-1.23;100.00;102529.88;5013491;28;20470;-62
2022/12/17 13:39:46;;;;;;;;;;;;;;;-1.19;100.00;102523.88;5013297;28;19917;-61
2022/12/17 13:42:16;;;;;;;;;;;;;;;-1.23;100.00;102517.16;5013172;28;19917;-62
2022/12/17 13:44:44;;;;;;;;;;;;;;;-1.33;100.00;102516.56;4995382;28;20044;-62
2022/12/17 13:47:29;;;;;;;;;;;;;;;-1.39;100.00;102523.56;5009915;28;19967;-62
2022/12/17 13:49:56;;;;;;;;;;;;;;;-1.45;100.00;102524.28;5013935;28;19956;-62
2022/12/17 13:52:28;;;;;;;;;;;;;;;-1.48;100.00;102525.50;5013393;28;19928;-59
2022/12/17 13:55:04;;;;;;;;;;;;;;;-1.46;100.00;102534.31;5012440;28;19917;-60
2022/12/17 13:57:30;;;;;;;;;;;;;;;-1.55;100.00;102532.72;5009641;28;19922;-58
2022/12/17 13:59:57;;;;;;;;;;;;;;;-1.62;100.00;102529.88;4992082;28;19932;-61
2022/12/17 14:02:26;;;;;;;;;;;;;;;-1.61;100.00;102534.28;4985494;28;19949;-64
2022/12/17 14:04:52;;;;;;;;;;;;;;;-1.64;100.00;102523.78;4996242;28;20059;-66
2022/12/17 14:07:18;;;;;;;;;;;;;;;-1.65;100.00;102530.22;5009999;28;19999;-59
2022/12/17 14:09:43;;;;;;;;;;;;;;;-1.68;100.00;102527.91;5012624;28;19925;-60
2022/12/17 14:12:22;;;;;;;;;;;;;;;-1.71;100.00;102528.25;5012296;28;19975;-59
2022/12/17 14:15:01;;;;;;;;;;;;;;;-1.68;100.00;102525.19;5012062;28;19967;-61
2022/12/17 14:17:28;;;;;;;;;;;;;;;-1.65;100.00;102526.69;5012402;28;19917;-62
2022/12/17 14:20:02;;;;;;;;;;;;;;;-1.69;100.00;102528.06;5012071;28;19925;-60
2022/12/17 14:22:33;;;;;;;;;;;;;;;-1.74;100.00;102539.47;5012468;28;20254;-61
2022/12/17 14:24:58;;;;;;;;;;;;;;;-1.82;100.00;102539.53;5012324;28;20078;-60
2022/12/17 14:27:25;;;;;;;;;;;;;;;-1.88;100.00;102543.81;5011547;28;20338;-61
2022/12/17 14:29:51;;;;;;;;;;;;;;;-1.87;100.00;102545.50;5011967;28;19994;-61
2022/12/17 14:32:24;;;;;;;;;;;;;;;-1.90;100.00;102543.19;5012466;28;19968;-61
2022/12/17 14:34:49;;;;;;;;;;;;;;;-1.93;100.00;102547.06;5011385;28;20047;-60
2022/12/17 14:37:16;;;;;;;;;;;;;;;-2.04;100.00;102544.81;5011538;28;20043;-61
2022/12/17 14:39:44;;;;;;;;;;;;;;;-2.06;100.00;102541.41;5008742;28;20000;-61
2022/12/17 14:42:31;;;;;;;;;;;;;;;-2.14;100.00;102550.44;5004779;28;20425;-62
2022/12/17 14:44:58;;;;;;;;;;;;;;;-2.11;100.00;102554.66;5011850;28;20353;-60
2022/12/17 14:47:25;;;;;;;;;;;;;;;-2.15;100.00;102547.91;5011827;28;19959;-59
2022/12/17 14:50:19;;;;;;;;;;;;;;;-2.21;100.00;102554.91;5011379;28;19972;-61
2022/12/17 14:52:49;;;;;;;;;;;;;;;-2.21;100.00;102557.59;4993762;28;19917;-61
2022/12/17 14:55:25;;;;;;;;;;;;;;;-2.18;100.00;102559.97;5008601;28;20027;-62
2022/12/17 14:57:50;;;;;;;;;;;;;;;-2.25;100.00;102564.41;5001378;28;20195;-60
2022/12/17 15:00:16;;;;;;;;;;;;;;;-2.14;100.00;102558.56;5010166;28;19923;-62
2022/12/17 15:02:42;;;;;;;;;;;;;;;-2.28;100.00;102552.03;5009466;28;19913;-63
2022/12/17 15:05:11;;;;;;;;;;;;;;;-2.30;100.00;102564.09;5009140;28;20369;-60
2022/12/17 15:07:37;;;;;;;;;;;;;;;-2.33;100.00;102573.44;5008995;28;19913;-60
2022/12/17 15:10:08;;;;;;;;;;;;;;;-2.37;100.00;102577.50;5008594;28;19917;-61
2022/12/17 15:12:33;;;;;;;;;;;;;;;-2.35;100.00;102575.47;5009072;28;20012;-48
2022/12/17 15:14:58;;;;;;;;;;;;;;;-2.26;100.00;102570.84;5009400;28;20404;-51
2022/12/17 15:17:23;;;;;;;;;;;;;;;-2.27;100.00;102574.59;5009713;28;19936;-48
2022/12/17 15:20:36;;;;;;;64.43;34.40;;;;;;;-2.32;100.00;102577.84;5102266;22;20430;-50
2022/12/17 15:23:01;;;;;;;54.42;30.83;;;;;;;-2.31;100.00;102581.38;5065920;28;20411;-50
2022/12/17 15:25:27;;;;;;;57.45;31.15;;;;;;;-2.29;100.00;102579.34;5066001;28;20108;-51
